Time;durP1;ratioP1;P1;durP2;ratioP2;P2;SDS_P1;SDS_P2;PMS_P1;PMS_P2;Temp;Humidity;BMP_temperature;BMP_pressure;BME280_temperature;BME280_humidity;BME280_pressure;Samples;Min_cycle;Max_cycle;Signal;HPM_P1;HPM_P2
2022/07/22 00:00:51;;;;;;;7.57;6.20;;;;;;;19.45;100.00;100962.97;5000882;28;20510;-79
2022/07/22 00:03:18;;;;;;;7.05;6.15;;;;;;;19.46;100.00;100956.66;5030453;28;20475;-78
2022/07/22 00:05:45;;;;;;;7.20;6.50;;;;;;;19.47;100.00;100961.06;5002181;28;20406;-78
2022/07/22 00:08:12;;;;;;;9.38;7.05;;;;;;;19.45;100.00;100965.66;4980399;28;20041;-78
2022/07/22 00:10:38;;;;;;;7.32;6.30;;;;;;;19.43;100.00;100967.53;4984230;28;20053;-79
2022/07/22 00:13:05;;;;;;;8.13;5.80;;;;;;;19.40;100.00;100965.00;4995683;28;20042;-78
2022/07/22 00:15:32;;;;;;;7.05;6.35;;;;;;;19.40;100.00;100967.69;4990880;28;20037;-78
2022/07/22 00:17:59;;;;;;;6.72;6.00;;;;;;;19.38;100.00;100969.59;5035890;28;20569;-78
2022/07/22 00:20:25;;;;;;;7.25;6.03;;;;;;;19.34;100.00;100968.91;4994165;28;20071;-79
2022/07/22 00:22:52;;;;;;;7.68;6.55;;;;;;;19.32;100.00;100968.09;5003459;28;20046;-78
2022/07/22 00:25:20;;;;;;;7.22;6.53;;;;;;;19.31;100.00;100966.34;5008161;28;20390;-78
2022/07/22 00:27:47;;;;;;;7.13;5.78;;;;;;;19.30;100.00;100969.13;4998589;28;20136;-78
2022/07/22 00:30:13;;;;;;;7.70;6.90;;;;;;;19.35;100.00;100961.72;4994705;28;20041;-78
2022/07/22 00:32:40;;;;;;;7.35;6.07;;;;;;;19.32;100.00;100967.22;4990639;28;20044;-78
2022/07/22 00:35:07;;;;;;;7.75;6.93;;;;;;;19.29;100.00;100964.72;5006953;28;20049;-77
2022/07/22 00:37:34;;;;;;;7.35;6.28;;;;;;;19.29;100.00;100962.91;5021130;28;20494;-77
2022/07/22 00:40:01;;;;;;;6.40;5.80;;;;;;;19.32;100.00;100961.88;4995292;28;20051;-77
2022/07/22 00:42:28;;;;;;;7.75;6.47;;;;;;;19.32;100.00;100965.41;5016626;28;20064;-78
2022/07/22 00:44:56;;;;;;;6.85;6.13;;;;;;;19.33;100.00;100961.78;4994146;28;20056;-78
2022/07/22 00:47:23;;;;;;;7.53;6.82;;;;;;;19.35;100.00;100961.72;5020077;28;20056;-78
2022/07/22 00:49:50;;;;;;;6.55;5.60;;;;;;;19.36;100.00;100953.59;4994107;28;20529;-77
2022/07/22 00:52:19;;;;;;;7.70;6.38;;;;;;;19.39;100.00;100949.88;5019539;28;20516;-78
2022/07/22 00:54:45;;;;;;;7.13;6.43;;;;;;;19.39;100.00;100952.56;4978696;28;20044;-77
2022/07/22 00:57:12;;;;;;;6.85;5.95;;;;;;;19.40;100.00;100952.47;4993869;28;20030;-77
2022/07/22 00:59:39;;;;;;;7.47;6.78;;;;;;;19.39;100.00;100944.53;5003803;28;20048;-77
2022/07/22 01:02:05;;;;;;;7.22;6.53;;;;;;;19.39;100.00;100950.75;5023128;28;20034;-77
2022/07/22 01:04:32;;;;;;;6.90;6.20;;;;;;;19.41;100.00;100953.34;4978249;28;20038;-77
2022/07/22 01:06:59;;;;;;;7.68;6.85;;;;;;;19.42;100.00;100957.75;4996040;28;20144;-78
2022/07/22 01:09:26;;;;;;;7.53;5.95;;;;;;;19.45;100.00;100949.56;5027213;28;20513;-77
2022/07/22 01:11:52;;;;;;;6.05;5.45;;;;;;;19.49;100.00;100955.63;5014180;28;20512;-77
2022/07/22 01:14:19;;;;;;;7.95;6.20;;;;;;;19.50;100.00;100944.81;5003818;28;20042;-77
2022/07/22 01:16:46;;;;;;;8.00;6.60;;;;;;;19.54;100.00;100943.72;5014279;28;20034;-77
2022/07/22 01:19:15;;;;;;;7.82;7.00;;;;;;;19.56;100.00;100941.84;5005042;28;20040;-78
2022/07/22 01:21:42;;;;;;;8.13;6.70;;;;;;;19.57;100.00;100938.22;5003626;28;20034;-77
2022/07/22 01:24:09;;;;;;;8.50;7.28;;;;;;;19.58;100.00;100929.22;5015520;28;20036;-77
2022/07/22 01:26:36;;;;;;;7.80;6.97;;;;;;;19.59;100.00;100936.34;5000161;28;20037;-77
2022/07/22 01:29:03;;;;;;;9.23;7.15;;;;;;;19.60;100.00;100922.00;5034241;28;20095;-78
2022/07/22 01:31:30;;;;;;;8.95;7.63;;;;;;;19.62;100.00;100929.94;4981433;28;20034;-78
2022/07/22 01:33:56;;;;;;;8.65;7.13;;;;;;;19.61;100.00;100926.41;4996084;28;20076;-78
2022/07/22 01:36:23;;;;;;;7.63;6.65;;;;;;;19.61;100.00;100933.56;5014891;28;20029;-78
2022/07/22 01:38:50;;;;;;;7.82;7.03;;;;;;;19.64;100.00;100944.13;5035528;28;20099;-78
2022/07/22 01:41:16;;;;;;;7.97;7.20;;;;;;;19.63;100.00;100937.91;5025328;28;20041;-78
2022/07/22 01:43:43;;;;;;;9.30;7.25;;;;;;;19.64;100.00;100944.13;5013741;28;20050;-77
2022/07/22 01:46:10;;;;;;;9.23;8.20;;;;;;;19.66;100.00;100948.44;4992968;28;20057;-78
2022/07/22 01:48:37;;;;;;;9.55;6.70;;;;;;;19.65;100.00;100945.84;5020818;28;20482;-78
2022/07/22 01:51:03;;;;;;;8.73;7.30;;;;;;;19.74;100.00;100953.41;4991282;28;20038;-77
2022/07/22 01:53:30;;;;;;;8.85;7.95;;;;;;;19.76;100.00;100946.16;4983724;28;20071;-78
2022/07/22 01:55:57;;;;;;;7.70;6.93;;;;;;;19.73;100.00;100951.66;5043315;28;20037;-77
2022/07/22 01:58:24;;;;;;;8.13;7.32;;;;;;;19.73;100.00;100956.16;5009279;28;20049;-77
2022/07/22 02:00:51;;;;;;;9.95;8.13;;;;;;;19.76;100.00;100946.16;5001216;28;20044;-78
2022/07/22 02:03:18;;;;;;;8.02;7.22;;;;;;;19.74;100.00;100950.72;5000081;28;20042;-78
2022/07/22 02:05:45;;;;;;;8.15;7.28;;;;;;;19.70;100.00;100942.94;5000874;28;20041;-78
2022/07/22 02:08:13;;;;;;;8.52;7.63;;;;;;;19.70;100.00;100946.47;5005678;28;20043;-78
2022/07/22 02:10:40;;;;;;;8.52;7.68;;;;;;;19.70;100.00;100942.94;5032220;28;20486;-78
2022/07/22 02:13:07;;;;;;;8.27;7.35;;;;;;;19.68;100.00;100946.56;5002005;28;20042;-78
2022/07/22 02:15:34;;;;;;;7.90;7.10;;;;;;;19.65;100.00;100953.91;5009876;28;20061;-78
2022/07/22 02:18:09;;;;;;;8.80;7.22;;;;;;;19.63;100.00;100945.06;4989831;28;20037;-79
2022/07/22 02:20:36;;;;;;;8.73;7.82;;;;;;;19.64;100.00;100950.34;5013224;28;20045;-79
2022/07/22 02:23:11;;;;;;;7.82;7.13;;;;;;;19.62;100.00;100952.25;5033150;28;20048;-78
2022/07/22 02:25:40;;;;;;;9.43;8.27;;;;;;;19.66;100.00;100953.81;4988031;28;20048;-78
2022/07/22 02:28:07;;;;;;;8.18;7.38;;;;;;;19.65;100.00;100956.56;5028790;28;20041;-79
2022/07/22 02:30:34;;;;;;;8.68;7.32;;;;;;;19.64;100.00;100961.06;5034705;28;20033;-79
2022/07/22 02:33:01;;;;;;;7.93;7.13;;;;;;;19.66;100.00;100967.22;5011560;28;20141;-79
2022/07/22 02:35:27;;;;;;;8.73;7.82;;;;;;;19.63;100.00;100967.38;5004971;28;20047;-79
2022/07/22 02:37:56;;;;;;;7.88;7.07;;;;;;;19.68;100.00;100967.16;5015240;28;20041;-79
2022/07/22 02:40:23;;;;;;;9.13;7.50;;;;;;;19.68;100.00;100968.03;5015233;28;20044;-79
2022/07/22 02:42:50;;;;;;;9.60;7.75;;;;;;;19.66;100.00;100964.53;5015350;28;20498;-79
2022/07/22 02:45:16;;;;;;;10.95;7.53;;;;;;;19.71;100.00;100971.47;5012425;28;20041;-79
2022/07/22 02:47:51;;;;;;;10.48;8.13;;;;;;;19.70;100.00;100967.94;5000005;28;20033;-79
2022/07/22 02:50:17;;;;;;;7.75;6.68;;;;;;;19.60;100.00;100966.69;5014225;28;20525;-79
2022/07/22 02:52:44;;;;;;;7.68;6.88;;;;;;;19.63;100.00;100966.53;5030125;28;20038;-79
2022/07/22 02:55:11;;;;;;;8.65;6.80;;;;;;;19.57;100.00;100967.69;5014413;28;20038;-80
2022/07/22 02:57:38;;;;;;;8.35;7.43;;;;;;;19.52;100.00;100975.09;4991006;28;20050;-80
2022/07/22 03:00:08;;;;;;;7.50;6.53;;;;;;;19.52;100.00;100967.06;4989066;28;20042;-80
2022/07/22 03:02:35;;;;;;;8.48;7.35;;;;;;;19.51;100.00;100968.00;4992094;28;20046;-80
2022/07/22 03:05:03;;;;;;;7.32;6.63;;;;;;;19.48;100.00;100954.75;5086331;23;20827;-78
2022/07/22 03:07:30;;;;;;;7.30;6.60;;;;;;;19.44;100.00;100958.56;5008470;28;20044;-78
2022/07/22 03:09:56;;;;;;;7.88;6.95;;;;;;;19.52;100.00;100955.47;4991928;28;20405;-78
2022/07/22 03:12:28;;;;;;;7.30;6.57;;;;;;;19.44;100.00;100952.34;5019868;28;20132;-78
2022/07/22 03:14:55;;;;;;;9.23;6.65;;;;;;;19.32;100.00;100946.66;5023568;28;20038;-78
2022/07/22 03:17:21;;;;;;;6.63;5.97;;;;;;;19.26;100.00;100948.81;5005642;28;20041;-78
2022/07/22 03:19:48;;;;;;;15.45;7.20;;;;;;;19.21;100.00;100957.06;4993528;28;20042;-78
2022/07/22 03:22:15;;;;;;;7.95;6.88;;;;;;;19.19;100.00;100960.78;5034643;28;20037;-77
2022/07/22 03:24:41;;;;;;;7.55;6.63;;;;;;;19.17;100.00;100954.59;5018062;28;20044;-78
2022/07/22 03:27:08;;;;;;;8.35;7.55;;;;;;;19.08;100.00;100956.81;5031587;28;20037;-78
2022/07/22 03:29:34;;;;;;;7.65;6.75;;;;;;;19.02;100.00;100965.19;5011519;28;20038;-78
2022/07/22 03:32:01;;;;;;;6.82;5.63;;;;;;;18.98;100.00;100971.63;4990806;28;20128;-78
2022/07/22 03:34:28;;;;;;;6.70;5.93;;;;;;;18.93;100.00;100967.47;5004518;28;20046;-77
2022/07/22 03:36:54;;;;;;;7.10;6.40;;;;;;;18.88;100.00;100972.16;5007244;28;20033;-78
2022/07/22 03:39:21;;;;;;;7.57;6.65;;;;;;;18.85;100.00;100975.88;5004857;28;20033;-78
2022/07/22 03:41:48;;;;;;;7.65;6.38;;;;;;;18.88;100.00;100985.56;5030567;28;20379;-78
2022/07/22 03:44:14;;;;;;;7.80;6.70;;;;;;;18.90;100.00;100980.97;5002491;28;20038;-77
2022/07/22 03:46:41;;;;;;;7.90;6.90;;;;;;;18.84;100.00;100979.50;5019881;28;20415;-78
2022/07/22 03:49:07;;;;;;;7.15;6.40;;;;;;;18.86;100.00;100982.09;5008881;28;20053;-78
2022/07/22 03:51:34;;;;;;;6.95;5.90;;;;;;;18.92;100.00;100977.31;4995568;28;20092;-78
2022/07/22 03:54:01;;;;;;;7.57;6.60;;;;;;;18.99;100.00;100969.81;5026958;28;20045;-77
2022/07/22 03:56:27;;;;;;;6.90;6.20;;;;;;;18.98;100.00;100970.75;5031884;28;20045;-78
2022/07/22 03:58:54;;;;;;;8.60;6.10;;;;;;;18.96;100.00;100973.53;5020823;28;20045;-78
2022/07/22 04:01:21;;;;;;;7.32;5.90;;;;;;;19.04;100.00;100971.31;5015618;28;20045;-77
2022/07/22 04:03:48;;;;;;;7.50;6.57;;;;;;;19.13;100.00;100976.22;5028083;28;20037;-78
2022/07/22 04:06:16;;;;;;;6.95;6.25;;;;;;;19.19;100.00;100972.38;5030613;28;20030;-78
2022/07/22 04:08:42;;;;;;;9.80;6.35;;;;;;;19.22;100.00;100979.34;5001782;28;20041;-78
2022/07/22 04:11:09;;;;;;;6.75;5.93;;;;;;;19.24;100.00;100978.31;4999164;28;20042;-79
2022/07/22 04:13:36;;;;;;;6.32;5.35;;;;;;;19.24;100.00;100978.31;5006207;28;20033;-80
2022/07/22 04:16:03;;;;;;;7.03;5.68;;;;;;;19.28;100.00;100981.72;5007934;28;20072;-79
2022/07/22 04:18:31;;;;;;;6.57;5.90;;;;;;;19.20;100.00;100971.41;4983774;28;20051;-78
2022/07/22 04:20:57;;;;;;;6.70;6.00;;;;;;;19.19;100.00;100975.03;4991681;28;20045;-79
2022/07/22 04:23:24;;;;;;;6.22;5.63;;;;;;;19.21;100.00;100972.28;5008098;28;20493;-79
2022/07/22 04:25:51;;;;;;;7.15;6.45;;;;;;;19.25;100.00;100985.41;5002599;28;20045;-79
2022/07/22 04:28:17;;;;;;;6.10;5.47;;;;;;;19.35;100.00;100985.84;5024049;28;20033;-78
2022/07/22 04:30:44;;;;;;;7.78;6.00;;;;;;;19.38;100.00;100982.97;5009585;28;20045;-78
2022/07/22 04:33:11;;;;;;;7.13;5.90;;;;;;;19.39;100.00;100982.03;5007016;28;20045;-79
2022/07/22 04:35:38;;;;;;;6.63;5.82;;;;;;;19.37;100.00;100991.97;5031467;28;20116;-78
2022/07/22 04:38:04;;;;;;;8.88;5.35;;;;;;;19.31;100.00;100998.50;5026099;28;20657;-78
2022/07/22 04:40:31;;;;;;;6.22;5.40;;;;;;;19.32;100.00;100996.69;5009568;28;20044;-79
2022/07/22 04:42:58;;;;;;;7.35;6.43;;;;;;;19.28;100.00;100998.66;4999301;28;20041;-78
2022/07/22 04:45:24;;;;;;;7.07;5.72;;;;;;;19.32;100.00;100999.38;5025463;28;20414;-78
2022/07/22 04:47:51;;;;;;;7.03;5.90;;;;;;;19.37;100.00;101000.00;5025811;28;20041;-79
2022/07/22 04:50:18;;;;;;;7.65;6.15;;;;;;;19.30;100.00;100998.59;5023101;28;20048;-78
2022/07/22 04:52:45;;;;;;;7.13;6.30;;;;;;;19.31;100.00;101000.31;5015203;28;20047;-78
2022/07/22 04:55:16;;;;;;;7.40;6.10;;;;;;;19.40;100.00;101000.72;5017794;28;20419;-79
2022/07/22 04:57:42;;;;;;;7.88;6.38;;;;;;;19.39;100.00;101003.47;5024948;28;20031;-78
2022/07/22 05:00:09;;;;;;;6.15;5.55;;;;;;;19.36;100.00;100999.16;5008882;28;20034;-78
2022/07/22 05:02:36;;;;;;;6.57;5.82;;;;;;;19.38;100.00;100991.88;5030065;28;20056;-79
2022/07/22 05:05:03;;;;;;;6.25;5.63;;;;;;;19.43;100.00;100988.97;4976235;28;20046;-78
2022/07/22 05:07:29;;;;;;;6.28;5.68;;;;;;;19.53;100.00;100986.69;5025785;28;20034;-78
2022/07/22 05:09:56;;;;;;;6.32;5.53;;;;;;;19.52;100.00;100988.50;4993245;28;20054;-78
2022/07/22 05:12:23;;;;;;;5.50;5.00;;;;;;;19.54;100.00;100991.97;5019691;28;20044;-78
2022/07/22 05:14:50;;;;;;;7.38;6.32;;;;;;;19.70;100.00;100996.56;5008049;28;20034;-78
2022/07/22 05:17:16;;;;;;;7.68;6.88;;;;;;;19.82;100.00;100986.03;5024136;28;20030;-79
2022/07/22 05:19:43;;;;;;;7.28;6.57;;;;;;;19.84;100.00;100989.50;5008021;28;20036;-78
2022/07/22 05:22:10;;;;;;;7.38;6.30;;;;;;;19.80;100.00;100990.59;5025678;28;20045;-79
2022/07/22 05:24:36;;;;;;;6.97;5.90;;;;;;;19.77;100.00;100996.16;5012912;28;20049;-79
2022/07/22 05:27:03;;;;;;;7.82;6.88;;;;;;;19.80;100.00;100992.44;5008652;28;20117;-78
2022/07/22 05:29:30;;;;;;;6.90;6.13;;;;;;;19.80;100.00;100992.44;5008523;28;20037;-78
2022/07/22 05:31:56;;;;;;;8.48;6.13;;;;;;;19.90;100.00;101002.56;5001851;28;20041;-78
2022/07/22 05:34:23;;;;;;;8.13;6.70;;;;;;;20.02;100.00;100997.50;4988823;28;20047;-79
2022/07/22 05:36:50;;;;;;;8.35;6.57;;;;;;;20.08;100.00;101006.06;5003804;28;20033;-78
2022/07/22 05:39:16;;;;;;;8.10;6.43;;;;;;;20.08;100.00;101003.38;5007110;28;20041;-78
2022/07/22 05:41:43;;;;;;;7.95;6.60;;;;;;;20.09;100.00;101002.44;5031674;28;20059;-78
2022/07/22 05:44:10;;;;;;;8.52;6.95;;;;;;;20.08;100.00;101011.44;5024143;28;20034;-78
2022/07/22 05:46:37;;;;;;;9.30;7.95;;;;;;;20.14;100.00;101005.75;5021988;28;20064;-79
2022/07/22 05:49:03;;;;;;;9.15;7.85;;;;;;;20.22;100.00;101008.00;5008973;28;20120;-78
2022/07/22 05:51:30;;;;;;;9.35;7.78;;;;;;;20.29;100.00;101012.09;5009437;28;20045;-77
2022/07/22 05:53:57;;;;;;;8.68;7.20;;;;;;;20.46;100.00;101009.38;5041860;28;20038;-78
2022/07/22 05:56:23;;;;;;;11.13;7.88;;;;;;;20.62;100.00;101001.31;5010889;28;20045;-79
2022/07/22 05:58:50;;;;;;;8.77;7.55;;;;;;;20.78;100.00;101002.16;4997480;28;20498;-77
2022/07/22 06:01:17;;;;;;;8.48;7.57;;;;;;;20.88;100.00;101015.06;5008125;28;20430;-78
2022/07/22 06:03:43;;;;;;;10.52;7.47;;;;;;;20.83;100.00;100999.19;5031040;28;20038;-78
2022/07/22 06:06:10;;;;;;;9.88;7.97;;;;;;;20.96;100.00;101002.06;5015763;28;20566;-78
2022/07/22 06:08:37;;;;;;;11.95;7.95;;;;;;;20.94;100.00;101006.66;5004166;28;20052;-78
2022/07/22 06:11:04;;;;;;;9.35;7.72;;;;;;;21.05;100.00;101007.75;5012492;28;20042;-78
2022/07/22 06:13:31;;;;;;;9.00;7.65;;;;;;;21.15;100.00;101001.84;5031840;28;20049;-77
2022/07/22 06:15:58;;;;;;;10.40;8.18;;;;;;;21.17;100.00;101006.16;5029227;28;20041;-77
2022/07/22 06:18:25;;;;;;;8.52;7.63;;;;;;;21.15;100.00;101004.53;5009166;28;20038;-78
2022/07/22 06:20:52;;;;;;;9.02;7.82;;;;;;;21.29;100.00;101005.47;4997937;28;20067;-78
2022/07/22 06:23:19;;;;;;;8.88;7.70;;;;;;;21.29;100.00;101007.31;5010387;28;20442;-77
2022/07/22 06:25:46;;;;;;;10.35;8.95;;;;;;;21.41;100.00;101003.00;5015267;28;20043;-75
2022/07/22 06:28:12;;;;;;;8.77;7.45;;;;;;;21.42;99.84;101010.97;5021139;28;20042;-76
2022/07/22 06:30:42;;;;;;;8.35;7.53;;;;;;;21.35;99.02;101009.59;5013294;28;20041;-78
2022/07/22 06:33:09;;;;;;;9.25;7.97;;;;;;;21.52;98.91;101006.75;4988937;28;20045;-76
2022/07/22 06:35:39;;;;;;;9.63;7.85;;;;;;;21.51;99.40;101005.03;5025470;28;20051;-78
2022/07/22 06:38:05;;;;;;;8.13;7.32;;;;;;;21.58;99.31;101006.41;5020196;28;20030;-77
2022/07/22 06:40:34;;;;;;;7.57;6.80;;;;;;;21.58;98.29;101003.72;5031635;28;20056;-76
2022/07/22 06:43:01;;;;;;;8.45;7.47;;;;;;;21.61;98.03;101011.63;5020748;28;20037;-78
2022/07/22 06:45:28;;;;;;;9.02;7.20;;;;;;;21.65;98.05;101006.91;4989948;28;20092;-79
2022/07/22 06:47:55;;;;;;;7.60;6.57;;;;;;;21.67;98.23;101004.09;5027430;28;20037;-77
2022/07/22 06:50:22;;;;;;;8.80;7.80;;;;;;;21.54;97.56;101004.00;5001975;28;20042;-77
2022/07/22 06:52:50;;;;;;;8.75;7.13;;;;;;;21.64;97.26;101006.03;5029854;28;20045;-78
2022/07/22 06:55:16;;;;;;;8.02;6.82;;;;;;;21.62;96.98;101007.97;5012569;28;20034;-77
2022/07/22 06:57:43;;;;;;;7.55;6.85;;;;;;;21.59;97.34;101010.81;5024275;28;20047;-78
2022/07/22 07:00:11;;;;;;;14.68;8.60;;;;;;;21.57;95.37;101015.44;5036239;28;20030;-76
2022/07/22 07:02:37;;;;;;;8.95;8.05;;;;;;;21.45;95.55;101012.63;5001466;28;20053;-78
2022/07/22 07:05:04;;;;;;;8.57;7.28;;;;;;;21.51;96.16;101012.25;5043718;28;20128;-78
2022/07/22 07:07:31;;;;;;;8.30;7.50;;;;;;;21.49;97.00;101016.84;5009291;28;20120;-76
2022/07/22 07:10:02;;;;;;;8.38;7.18;;;;;;;21.60;97.34;101019.75;5026892;28;20048;-77
2022/07/22 07:12:34;;;;;;;8.82;7.80;;;;;;;21.64;94.55;101026.69;5039126;28;20034;-77
2022/07/22 07:15:05;;;;;;;9.52;8.52;;;;;;;21.41;94.60;101017.31;5031584;28;20073;-77
2022/07/22 07:17:51;;;;;;;9.20;8.00;;;;;;;21.37;94.60;101014.91;5005666;28;20146;-77
2022/07/22 07:20:18;;;;;;;9.43;8.27;;;;;;;21.28;96.46;101021.69;5003987;28;20044;-76
2022/07/22 07:22:45;;;;;;;9.73;8.75;;;;;;;21.18;96.14;101026.69;5020477;28;20712;-77
2022/07/22 07:25:12;;;;;;;11.15;8.32;;;;;;;21.23;97.42;101021.94;5028471;28;20033;-77
2022/07/22 07:27:50;;;;;;;8.48;7.63;;;;;;;21.23;96.91;101024.63;5007662;28;20490;-78
2022/07/22 07:30:20;;;;;;;8.95;8.05;;;;;;;21.31;97.02;101018.81;5010894;28;21706;-77
2022/07/22 07:32:47;;;;;;;8.23;7.18;;;;;;;21.38;96.81;101014.81;5008773;28;20052;-77
2022/07/22 07:35:14;;;;;;;7.43;6.65;;;;;;;21.47;96.95;101013.41;5010935;28;20419;-77
2022/07/22 07:37:40;;;;;;;8.32;7.35;;;;;;;21.47;95.91;101013.41;5018659;28;20048;-77
2022/07/22 07:40:08;;;;;;;33.63;11.18;;;;;;;21.47;95.28;101021.47;5010782;28;20041;-78
2022/07/22 07:42:34;;;;;;;8.27;7.47;;;;;;;21.40;95.49;101025.47;5018853;28;20038;-77
2022/07/22 07:45:09;;;;;;;61.95;18.52;;;;;;;21.30;95.36;101009.91;5015785;28;20098;-78
2022/07/22 07:47:36;;;;;;;10.40;8.85;;;;;;;21.15;96.17;101024.19;5034009;28;20026;-78
2022/07/22 07:50:04;;;;;;;9.15;7.55;;;;;;;21.02;98.60;101026.75;5013468;28;20042;-78
2022/07/22 07:52:44;;;;;;;10.40;7.18;;;;;;;21.00;99.62;101031.31;5018918;28;20486;-77
2022/07/22 07:55:18;;;;;;;8.88;7.97;;;;;;;20.95;98.81;101032.56;5022722;28;20041;-78
2022/07/22 07:57:48;;;;;;;8.68;7.75;;;;;;;21.12;99.80;101031.59;5019363;28;20029;-78
2022/07/22 08:00:20;;;;;;;9.48;7.70;;;;;;;21.31;99.06;101041.19;5010721;28;20043;-78
2022/07/22 08:02:47;;;;;;;9.45;8.02;;;;;;;21.42;97.79;101039.69;5013894;28;20049;-77
2022/07/22 08:05:15;;;;;;;9.18;8.13;;;;;;;21.54;96.19;101034.44;5031827;28;20041;-78
2022/07/22 08:07:42;;;;;;;9.48;8.35;;;;;;;21.67;95.58;101034.56;5034388;28;20052;-77
2022/07/22 08:10:09;;;;;;;8.52;7.07;;;;;;;22.22;93.83;101031.19;5004084;28;20491;-78
2022/07/22 08:12:57;;;;;;;8.00;6.32;;;;;;;22.92;88.40;101020.41;5016288;28;20045;-77
2022/07/22 08:15:26;;;;;;;7.18;6.47;;;;;;;23.75;84.70;101021.91;5028429;28;20075;-78
2022/07/22 08:17:54;;;;;;;6.72;6.05;;;;;;;24.55;78.29;101027.94;5037129;28;20071;-77
2022/07/22 08:20:23;;;;;;;8.80;7.97;;;;;;;25.06;72.89;101016.97;5023549;28;20552;-79
2022/07/22 08:22:50;;;;;;;6.65;5.97;;;;;;;25.39;70.03;101013.53;5015100;28;20629;-79
2022/07/22 08:25:17;;;;;;;7.18;6.57;;;;;;;24.75;71.34;101021.03;5005109;28;20041;-78
2022/07/22 08:27:44;;;;;;;6.88;5.63;;;;;;;24.50;72.24;101030.09;5029584;28;20521;-79
2022/07/22 08:30:11;;;;;;;6.68;6.07;;;;;;;24.04;73.05;101027.09;5006734;28;20072;-78
2022/07/22 08:32:38;;;;;;;7.28;6.22;;;;;;;23.75;75.22;101034.53;5001797;28;20524;-78
2022/07/22 08:35:06;;;;;;;7.40;5.85;;;;;;;23.29;76.76;101022.38;5011337;28;20047;-78
2022/07/22 08:37:33;;;;;;;5.85;5.30;;;;;;;23.14;78.61;101033.31;5010034;28;20037;-78
2022/07/22 08:40:00;;;;;;;6.85;6.15;;;;;;;22.99;79.55;101038.75;5031058;28;20037;-79
2022/07/22 08:42:28;;;;;;;6.32;5.72;;;;;;;22.92;81.36;101033.88;5022497;28;20041;-77
2022/07/22 08:44:55;;;;;;;6.88;6.20;;;;;;;22.74;82.85;101030.53;5011142;28;20041;-78
2022/07/22 08:47:30;;;;;;;6.30;5.70;;;;;;;22.66;83.89;101039.09;5019037;28;20378;-78
2022/07/22 08:50:07;;;;;;;6.07;5.47;;;;;;;22.86;83.81;101034.25;5016606;28;20502;-78
2022/07/22 08:52:34;;;;;;;6.03;5.43;;;;;;;22.91;82.36;101035.69;5004838;28;20042;-77
2022/07/22 08:55:05;;;;;;;6.57;5.97;;;;;;;22.77;83.22;101041.09;4992951;28;20044;-77
2022/07/22 08:57:32;;;;;;;7.35;5.80;;;;;;;22.64;84.63;101037.47;5009040;28;20375;-78
2022/07/22 09:00:00;;;;;;;7.90;5.80;;;;;;;22.43;88.50;101045.94;4991893;28;20029;-78
2022/07/22 09:02:27;;;;;;;6.60;4.20;;;;;;;22.10;88.73;101056.16;5010381;28;20138;-78
2022/07/22 09:05:00;;;;;;;3.58;3.28;;;;;;;22.20;90.64;101049.25;5016102;28;20072;-78
2022/07/22 09:07:47;;;;;;;3.97;3.17;;;;;;;22.66;86.75;101043.63;5113963;23;20046;-80
2022/07/22 09:10:16;;;;;;;13.35;5.25;;;;;;;23.07;85.36;101046.31;4994938;28;20497;-79
2022/07/22 09:12:59;;;;;;;4.00;3.60;;;;;;;23.57;81.70;101042.91;4980510;28;20037;-79
2022/07/22 09:15:30;;;;;;;3.88;3.35;;;;;;;23.47;80.75;101051.75;5017337;28;20053;-78
2022/07/22 09:17:58;;;;;;;5.55;4.68;;;;;;;23.29;80.01;101053.84;5010039;28;20057;-79
2022/07/22 09:20:31;;;;;;;19.15;6.97;;;;;;;23.19;81.90;101055.41;5017499;28;20056;-83
2022/07/22 09:22:57;;;;;;;6.30;5.70;;;;;;;22.90;83.94;101052.84;5028371;28;20051;-82
2022/07/22 09:25:34;;;;;;;6.00;5.40;;;;;;;22.71;85.02;101052.28;5046327;28;20044;-81
2022/07/22 09:28:07;;;;;;;6.93;5.90;;;;;;;22.58;85.67;101060.28;5027463;28;20118;-80
2022/07/22 09:30:38;;;;;;;7.47;5.93;;;;;;;22.36;87.33;101054.50;5028825;28;20049;-81
2022/07/22 09:33:07;;;;;;;7.20;5.63;;;;;;;22.26;88.03;101065.00;5046484;28;20512;-82
2022/07/22 09:35:35;;;;;;;5.43;4.93;;;;;;;22.37;89.24;101058.97;5077112;28;20036;-83
2022/07/22 09:38:05;;;;;;;5.80;4.72;;;;;;;22.63;87.04;101068.06;5034821;28;20620;-80
2022/07/22 09:40:40;;;;;;;5.93;5.35;;;;;;;22.99;84.46;101065.69;5016476;28;20037;-80
2022/07/22 09:43:12;;;;;;;6.53;5.93;;;;;;;22.70;83.99;101069.38;5033240;28;20091;-81
2022/07/22 09:45:47;;;;;;;6.07;5.20;;;;;;;22.70;85.64;101083.75;5031553;28;20064;-81
2022/07/22 09:48:19;;;;;;;5.22;4.72;;;;;;;22.22;87.79;101081.44;5027344;28;20095;-80
2022/07/22 09:50:46;;;;;;;4.90;4.20;;;;;;;;;;5029961;28;20432;-77
2022/07/22 09:53:14;;;;;;;3.95;3.55;;;;;;;21.55;88.19;101086.38;5057782;28;20041;-80
2022/07/22 09:55:41;;;;;;;4.45;3.40;;;;;;;21.43;90.50;101100.53;5042676;28;20037;-80
2022/07/22 09:58:08;;;;;;;3.28;2.97;;;;;;;21.62;90.26;101093.13;5017747;28;20034;-80
2022/07/22 10:00:36;;;;;;;3.38;3.05;;;;;;;21.86;87.90;101091.66;5027523;28;20037;-79
2022/07/22 10:03:06;;;;;;;3.90;2.90;;;;;;;22.18;84.60;101094.22;5019740;28;20037;-81
2022/07/22 10:05:36;;;;;;;3.47;2.65;;;;;;;22.04;82.04;101099.56;5025126;28;20569;-79
2022/07/22 10:08:04;;;;;;;11.07;3.65;;;;;;;22.07;80.21;101099.38;5024301;28;20037;-80
2022/07/22 10:10:32;;;;;;;3.65;2.55;;;;;;;22.23;81.00;101100.19;5036767;28;20501;-81
2022/07/22 10:13:00;;;;;;;3.45;2.55;;;;;;;22.41;80.55;101090.09;5007953;28;20033;-80
2022/07/22 10:15:28;;;;;;;2.60;2.20;;;;;;;22.77;79.41;101095.81;5042676;28;20072;-80
2022/07/22 10:18:05;;;;;;;3.00;2.70;;;;;;;23.09;76.39;101089.34;5029822;28;20982;-80
2022/07/22 10:20:32;;;;;;;3.03;2.72;;;;;;;23.49;75.04;101093.81;5023096;28;20094;-80
2022/07/22 10:23:00;;;;;;;2.97;2.60;;;;;;;24.04;70.01;101086.47;5018936;28;20045;-81
2022/07/22 10:25:58;;;;;;;2.47;2.28;;;;;;;24.34;69.19;101084.34;5018652;28;20129;-78
2022/07/22 10:28:30;;;;;;;3.42;2.95;;;;;;;24.61;66.04;101083.31;5038249;28;20555;-80
2022/07/22 10:31:15;;;;;;;2.78;2.50;;;;;;;24.77;65.23;101083.94;5027407;28;20133;-81
2022/07/22 10:33:44;;;;;;;170.05;24.45;;;;;;;25.08;63.52;101088.00;5011095;28;20037;-79
2022/07/22 10:36:12;;;;;;;3.17;2.88;;;;;;;25.06;63.53;101084.53;5016003;28;20052;-80
2022/07/22 10:39:03;;;;;;;10.43;3.10;;;;;;;25.75;62.38;101084.75;5011197;28;20436;-80
2022/07/22 10:41:35;;;;;;;2.53;2.13;;;;;;;25.35;61.59;101086.91;5019363;28;20038;-82
2022/07/22 10:44:02;;;;;;;2.05;1.85;;;;;;;25.16;61.43;101092.81;5000255;28;20060;-80
2022/07/22 10:46:48;;;;;;;2.65;2.10;;;;;;;24.77;62.64;101086.66;5016192;28;20033;-81
2022/07/22 10:49:16;;;;;;;1.80;1.70;;;;;;;24.78;63.25;101084.81;5047266;28;20040;-81
2022/07/22 10:52:16;;;;;;;2.33;2.13;;;;;;;24.30;64.44;101084.63;5031065;28;20123;-82
2022/07/22 10:55:19;;;;;;;2.20;2.00;;;;;;;24.47;65.45;101087.03;5015997;28;20452;-80
2022/07/22 10:57:46;;;;;;;1.95;1.85;;;;;;;24.71;64.54;101081.69;5028586;28;20041;-81
2022/07/22 11:00:12;;;;;;;2.65;2.00;;;;;;;24.99;63.44;101094.91;5034753;28;20052;-82
2022/07/22 11:02:39;;;;;;;2.22;1.70;;;;;;;25.10;62.33;101095.97;5015642;28;20477;-80
2022/07/22 11:05:07;;;;;;;3.53;2.03;;;;;;;25.14;61.83;101086.66;5034883;28;20041;-81
2022/07/22 11:07:40;;;;;;;3.63;2.15;;;;;;;25.21;61.13;101099.59;5020349;28;20080;-83
2022/07/22 11:10:14;;;;;;;2.78;1.98;;;;;;;25.23;60.83;101088.69;5027279;28;20044;-82
2022/07/22 11:12:49;;;;;;;41.95;7.00;;;;;;;25.02;61.00;101091.09;5026699;28;20037;-80
2022/07/22 11:15:17;;;;;;;3.30;1.83;;;;;;;24.97;61.13;101090.56;5010281;28;20048;-79
2022/07/22 11:17:43;;;;;;;3.08;2.00;;;;;;;24.93;61.54;101091.78;5025244;28;20040;-79
2022/07/22 11:20:12;;;;;;;2.38;1.95;;;;;;;24.90;61.83;101094.72;5033293;28;20029;-80
2022/07/22 11:22:39;;;;;;;1.85;1.75;;;;;;;24.72;62.61;101083.44;5018330;28;20040;-81
2022/07/22 11:25:09;;;;;;;2.00;1.80;;;;;;;24.74;62.49;101097.69;5021709;28;20394;-80